Time;durP1;ratioP1;P1;durP2;ratioP2;P2;SDS_P1;SDS_P2;PMS_P1;PMS_P2;Temp;Humidity;BMP_temperature;BMP_pressure;BME280_temperature;BME280_humidity;BME280_pressure;Samples;Min_cycle;Max_cycle;Signal;HPM_P1;HPM_P2
2021/12/20 00:01:32;;;;;;;13.53;2.70;;;7.50;99.90;;;;;;5102584;28;20242;-82
2021/12/20 00:03:59;;;;;;;17.70;3.10;;;7.50;99.90;;;;;;5101714;28;20308;-81
2021/12/20 00:06:26;;;;;;;21.40;2.97;;;7.50;99.90;;;;;;5097733;28;20555;-81
2021/12/20 00:08:53;;;;;;;18.43;3.13;;;7.50;99.90;;;;;;5102966;28;20204;-81
2021/12/20 00:11:20;;;;;;;19.13;2.83;;;7.50;99.90;;;;;;5104406;28;20203;-80
2021/12/20 00:13:46;;;;;;;18.93;2.87;;;7.50;99.90;;;;;;5099852;28;20684;-82
2021/12/20 00:16:13;;;;;;;14.80;4.87;;;7.50;99.90;;;;;;5081874;28;20279;-81
2021/12/20 00:18:42;;;;;;;22.23;3.57;;;7.50;99.90;;;;;;5108542;28;20768;-80
2021/12/20 00:21:09;;;;;;;19.83;3.43;;;7.40;99.90;;;;;;5084098;28;20252;-80
2021/12/20 00:23:36;;;;;;;27.80;3.20;;;7.40;99.90;;;;;;5111904;28;20714;-81
2021/12/20 00:26:06;;;;;;;18.27;4.00;;;7.40;99.90;;;;;;5113219;28;20250;-80
2021/12/20 00:28:33;;;;;;;23.57;3.80;;;7.40;99.90;;;;;;5101119;28;20218;-81
2021/12/20 00:31:00;;;;;;;17.10;2.73;;;7.40;99.90;;;;;;5085491;28;20294;-80
2021/12/20 00:33:33;;;;;;;18.90;2.87;;;7.40;99.90;;;;;;5105441;28;20243;-81
2021/12/20 00:36:01;;;;;;;19.83;3.43;;;7.40;99.90;;;;;;5117749;28;20429;-81
2021/12/20 00:41:15;;;;;;;17.80;2.80;;;7.40;99.90;;;;;;5103593;28;20210;-81
2021/12/20 00:43:42;;;;;;;22.20;2.90;;;7.40;99.90;;;;;;5105201;28;20204;-81
2021/12/20 00:46:09;;;;;;;21.23;3.03;;;7.40;99.90;;;;;;5090572;28;20202;-82
2021/12/20 00:48:36;;;;;;;20.27;2.97;;;7.40;99.90;;;;;;5087811;28;20718;-80
2021/12/20 00:51:06;;;;;;;20.20;3.77;;;7.40;99.90;;;;;;5098460;28;20229;-81
2021/12/20 00:53:33;;;;;;;20.07;3.30;;;7.40;99.90;;;;;;5083283;28;20288;-81
2021/12/20 00:55:59;;;;;;;16.00;2.90;;;7.40;99.90;;;;;;5105527;28;20206;-81
2021/12/20 00:58:27;;;;;;;10.17;2.63;;;7.40;99.90;;;;;;5107629;28;20288;-81
2021/12/20 01:00:56;;;;;;;17.07;2.77;;;7.40;99.90;;;;;;5100179;28;20334;-81
2021/12/20 01:03:26;;;;;;;21.13;3.20;;;7.40;99.90;;;;;;5099120;28;20242;-83
2021/12/20 01:05:53;;;;;;;22.43;3.80;;;7.40;99.90;;;;;;5088014;28;20674;-82
2021/12/20 01:08:21;;;;;;;19.70;2.67;;;7.40;99.90;;;;;;5102905;28;20282;-80
2021/12/20 01:10:52;;;;;;;13.03;3.13;;;7.30;99.90;;;;;;5103353;28;20221;-80
2021/12/20 01:13:22;;;;;;;17.40;3.17;;;7.30;99.90;;;;;;5101911;28;20276;-81
2021/12/20 01:15:52;;;;;;;13.67;3.10;;;7.30;99.90;;;;;;5086264;28;20291;-80
2021/12/20 01:18:21;;;;;;;18.57;3.47;;;7.30;99.90;;;;;;5096991;28;20272;-81
2021/12/20 01:20:49;;;;;;;19.47;4.00;;;7.20;99.90;;;;;;5101749;28;20588;-81
2021/12/20 01:23:17;;;;;;;17.67;3.40;;;7.20;99.90;;;;;;5105593;28;20797;-82
2021/12/20 01:25:44;;;;;;;14.97;2.73;;;7.20;99.90;;;;;;5102792;28;20283;-80
2021/12/20 01:28:11;;;;;;;22.67;3.40;;;7.20;99.90;;;;;;5098625;28;20200;-80
2021/12/20 01:30:40;;;;;;;16.87;2.73;;;7.20;99.90;;;;;;5101638;28;20298;-81
2021/12/20 01:33:09;;;;;;;20.60;3.23;;;7.20;99.90;;;;;;5085971;28;20206;-81
2021/12/20 01:35:36;;;;;;;22.37;2.90;;;7.20;99.90;;;;;;5094172;28;20641;-81
2021/12/20 01:38:07;;;;;;;14.50;2.70;;;7.20;99.90;;;;;;5100201;28;20234;-81
2021/12/20 01:40:35;;;;;;;19.27;3.30;;;7.20;99.90;;;;;;5084869;28;20587;-80
2021/12/20 01:43:08;;;;;;;20.80;3.37;;;7.20;99.90;;;;;;5095931;28;20232;-81
2021/12/20 01:45:35;;;;;;;18.80;3.60;;;7.20;99.90;;;;;;5087104;28;20302;-80
2021/12/20 01:48:14;;;;;;;14.10;3.20;;;7.20;99.90;;;;;;5086505;28;20239;-81
2021/12/20 01:53:13;;;;;;;20.40;3.90;;;7.20;99.90;;;;;;5105096;28;20198;-79
2021/12/20 01:55:40;;;;;;;18.37;3.10;;;7.20;99.90;;;;;;5099105;28;20241;-81
2021/12/20 01:58:07;;;;;;;18.33;3.20;;;7.20;99.90;;;;;;5078475;28;20614;-81
2021/12/20 02:00:37;;;;;;;22.23;3.90;;;7.10;99.90;;;;;;5084120;28;20680;-80
2021/12/20 02:03:12;;;;;;;16.87;3.57;;;7.10;99.90;;;;;;5079954;28;20216;-82
2021/12/20 02:08:21;;;;;;;21.93;3.53;;;7.10;99.90;;;;;;5079958;28;20212;-80
2021/12/20 02:10:50;;;;;;;20.13;2.40;;;7.10;99.90;;;;;;5082278;28;20580;-81
2021/12/20 02:13:17;;;;;;;17.73;2.80;;;7.10;99.90;;;;;;5085522;28;20202;-80
2021/12/20 02:15:44;;;;;;;17.73;3.23;;;7.10;99.90;;;;;;5083475;28;20328;-81
2021/12/20 02:18:11;;;;;;;19.27;3.20;;;7.10;99.90;;;;;;5079617;28;20290;-81
2021/12/20 02:20:39;;;;;;;19.87;3.17;;;7.10;99.90;;;;;;5085405;28;20271;-81
2021/12/20 02:23:07;;;;;;;20.00;2.80;;;7.10;99.90;;;;;;5082553;28;20208;-80
2021/12/20 02:25:34;;;;;;;17.00;3.00;;;7.10;99.90;;;;;;5080079;28;20263;-81
2021/12/20 02:28:12;;;;;;;13.13;3.27;;;7.10;99.90;;;;;;5075119;28;20715;-81
2021/12/20 02:38:41;;;;;;;15.53;2.70;;;7.00;99.90;;;;;;5081102;28;20301;-81
2021/12/20 02:41:21;;;;;;;14.67;3.20;;;7.10;99.90;;;;;;5079899;28;20677;-80
2021/12/20 02:43:55;;;;;;;22.07;5.10;;;7.00;99.90;;;;;;5076845;28;20606;-82
2021/12/20 02:46:33;;;;;;;12.60;3.07;;;7.00;99.90;;;;;;5080272;28;20245;-81
2021/12/20 02:49:00;;;;;;;14.37;3.43;;;6.90;99.90;;;;;;5077773;28;20447;-82
2021/12/20 02:51:28;;;;;;;13.87;2.83;;;6.90;99.90;;;;;;5073511;28;20212;-81
2021/12/20 02:53:57;;;;;;;25.47;3.40;;;6.90;99.90;;;;;;5078594;28;20290;-80
2021/12/20 02:56:24;;;;;;;18.40;3.23;;;6.90;99.90;;;;;;5077010;28;20215;-81
2021/12/20 02:58:52;;;;;;;17.67;3.37;;;6.90;99.90;;;;;;5079720;28;20235;-81
2021/12/20 03:01:20;;;;;;;17.07;3.10;;;6.90;99.90;;;;;;5080088;28;20237;-81
2021/12/20 03:03:49;;;;;;;12.87;2.50;;;6.90;99.90;;;;;;5083020;28;20209;-80
2021/12/20 03:06:29;;;;;;;17.00;2.70;;;6.90;99.90;;;;;;5077864;28;20236;-82
2021/12/20 03:08:57;;;;;;;16.87;3.20;;;6.90;99.90;;;;;;5085974;28;20246;-80
2021/12/20 03:11:27;;;;;;;16.23;3.00;;;6.90;99.90;;;;;;5087715;28;20207;-82
2021/12/20 03:14:07;;;;;;;16.60;3.80;;;6.90;99.90;;;;;;5086699;28;20990;-81
2021/12/20 03:16:36;;;;;;;17.33;3.10;;;6.90;99.90;;;;;;5084892;28;20213;-82
2021/12/20 03:19:05;;;;;;;13.53;3.17;;;6.90;99.90;;;;;;5073974;28;20207;-81
2021/12/20 03:21:32;;;;;;;14.27;2.87;;;6.90;99.90;;;;;;5077081;28;20234;-81
2021/12/20 03:23:59;;;;;;;22.10;3.77;;;6.90;99.90;;;;;;5081139;28;20616;-82
2021/12/20 03:26:26;;;;;;;8.67;2.30;;;6.90;99.90;;;;;;5082911;28;20237;-81
2021/12/20 03:28:53;;;;;;;17.07;2.30;;;6.90;99.90;;;;;;5072941;28;20213;-81
2021/12/20 03:31:20;;;;;;;16.57;2.70;;;6.90;99.90;;;;;;5083061;28;20200;-81
2021/12/20 03:33:47;;;;;;;14.17;3.37;;;6.90;99.90;;;;;;5080923;28;20306;-80
2021/12/20 03:36:13;;;;;;;15.83;2.53;;;6.90;99.90;;;;;;5083233;28;20223;-82
2021/12/20 03:38:40;;;;;;;14.93;3.03;;;6.90;99.90;;;;;;5075320;28;20204;-81
2021/12/20 03:41:07;;;;;;;14.43;2.80;;;7.00;99.90;;;;;;5079598;28;20295;-82
2021/12/20 03:43:35;;;;;;;17.90;2.90;;;7.00;99.90;;;;;;5080808;28;20523;-80
2021/12/20 03:46:05;;;;;;;21.67;3.93;;;7.00;99.90;;;;;;5078254;28;20221;-81
2021/12/20 03:48:34;;;;;;;16.17;2.67;;;7.00;99.90;;;;;;5082898;28;20241;-80
2021/12/20 03:51:02;;;;;;;14.70;3.03;;;7.00;99.90;;;;;;5078649;28;20224;-81
2021/12/20 03:53:33;;;;;;;12.00;2.97;;;7.00;99.90;;;;;;5083533;28;20225;-81
2021/12/20 03:56:02;;;;;;;21.43;3.43;;;7.00;99.90;;;;;;5074537;28;20321;-80
2021/12/20 03:58:31;;;;;;;19.27;3.03;;;7.00;99.90;;;;;;5089291;28;20230;-82
2021/12/20 04:01:00;;;;;;;21.67;3.47;;;7.00;99.90;;;;;;5098237;28;20211;-80
2021/12/20 04:03:30;;;;;;;17.63;3.33;;;7.00;99.90;;;;;;5099627;28;20644;-80
2021/12/20 04:05:57;;;;;;;13.90;2.70;;;7.00;99.90;;;;;;5098500;28;20217;-80
2021/12/20 04:08:24;;;;;;;21.03;3.50;;;7.00;99.90;;;;;;5084454;28;20269;-81
2021/12/20 04:10:51;;;;;;;15.63;3.17;;;7.00;99.90;;;;;;5098134;28;20213;-80
2021/12/20 04:13:19;;;;;;;22.33;3.47;;;7.00;99.90;;;;;;5098549;28;20206;-79
2021/12/20 04:15:46;;;;;;;16.67;2.97;;;7.00;99.90;;;;;;5099928;28;20713;-80
2021/12/20 04:18:12;;;;;;;16.53;2.87;;;7.00;99.90;;;;;;5081078;28;20198;-82
2021/12/20 04:20:39;;;;;;;17.07;2.20;;;7.00;99.90;;;;;;5103879;28;20221;-80
2021/12/20 04:23:06;;;;;;;13.63;2.73;;;7.00;99.90;;;;;;5081056;28;20236;-80
2021/12/20 04:25:33;;;;;;;19.67;2.70;;;7.00;99.90;;;;;;5104983;28;20234;-80
2021/12/20 04:28:00;;;;;;;15.80;2.83;;;6.90;99.90;;;;;;5098851;28;20204;-81
2021/12/20 04:30:30;;;;;;;17.07;3.10;;;6.90;99.90;;;;;;5102010;28;20255;-80
2021/12/20 04:32:57;;;;;;;13.63;2.20;;;6.90;99.90;;;;;;5098181;28;20206;-81
2021/12/20 04:35:24;;;;;;;13.67;2.70;;;6.90;99.90;;;;;;5104348;28;20940;-80
2021/12/20 04:37:53;;;;;;;12.50;2.57;;;6.80;99.90;;;;;;5103525;28;20287;-80
2021/12/20 04:40:22;;;;;;;16.20;2.60;;;6.90;99.90;;;;;;5083015;28;20205;-81
2021/12/20 04:42:52;;;;;;;17.37;2.80;;;6.90;99.90;;;;;;5097414;28;20304;-80
2021/12/20 04:45:19;;;;;;;20.77;2.57;;;6.90;99.90;;;;;;5094932;28;20211;-81
2021/12/20 04:47:46;;;;;;;12.63;2.80;;;6.90;99.90;;;;;;5104278;28;20204;-80
2021/12/20 04:50:14;;;;;;;14.80;2.50;;;6.90;99.90;;;;;;5076818;28;20225;-81
2021/12/20 04:52:41;;;;;;;19.23;3.47;;;6.90;99.90;;;;;;5105024;28;20275;-80
2021/12/20 04:55:11;;;;;;;14.13;2.53;;;6.90;99.90;;;;;;5099717;28;20314;-81
2021/12/20 04:57:40;;;;;;;16.23;2.93;;;6.80;99.90;;;;;;5094604;28;20245;-81
2021/12/20 05:00:10;;;;;;;14.47;2.80;;;6.80;99.90;;;;;;5100620;28;20208;-79
2021/12/20 05:02:37;;;;;;;15.30;2.63;;;6.90;99.90;;;;;;5094000;28;20214;-80
2021/12/20 05:05:04;;;;;;;10.73;2.50;;;6.80;99.90;;;;;;5101036;28;20608;-81
2021/12/20 05:07:32;;;;;;;10.40;2.70;;;6.80;99.90;;;;;;5098134;28;20203;-82
2021/12/20 05:10:02;;;;;;;20.50;3.40;;;6.80;99.90;;;;;;5098790;28;20346;-81
2021/12/20 05:12:31;;;;;;;12.97;2.37;;;6.80;99.90;;;;;;5094674;28;20215;-80
2021/12/20 05:14:57;;;;;;;9.13;2.70;;;6.80;99.90;;;;;;5101830;28;20654;-80
2021/12/20 05:17:24;;;;;;;12.93;2.90;;;6.80;99.90;;;;;;5089671;28;20229;-80
2021/12/20 05:19:51;;;;;;;15.30;2.67;;;6.80;99.90;;;;;;5102212;28;20256;-80
2021/12/20 05:22:18;;;;;;;14.70;2.40;;;6.80;99.90;;;;;;5108007;28;20212;-80
2021/12/20 05:24:45;;;;;;;21.90;2.77;;;6.80;99.90;;;;;;5102182;28;20258;-81
2021/12/20 05:27:13;;;;;;;12.77;2.10;;;6.80;99.90;;;;;;5086600;28;20288;-79
2021/12/20 05:29:40;;;;;;;14.50;2.47;;;6.80;99.90;;;;;;5114940;28;20201;-80
2021/12/20 05:32:09;;;;;;;11.63;2.47;;;6.70;99.90;;;;;;5120052;28;20215;-80
2021/12/20 05:34:35;;;;;;;16.70;2.53;;;6.80;99.90;;;;;;5113160;28;20242;-80
2021/12/20 05:37:05;;;;;;;9.30;2.10;;;6.80;99.90;;;;;;5098702;28;20683;-81
2021/12/20 05:39:31;;;;;;;10.80;2.27;;;6.80;99.90;;;;;;5111484;28;20264;-81
2021/12/20 05:41:58;;;;;;;11.83;2.10;;;6.70;99.90;;;;;;5119977;28;20269;-80
2021/12/20 05:44:26;;;;;;;9.93;2.40;;;6.70;99.90;;;;;;5105826;28;20211;-81
2021/12/20 05:46:53;;;;;;;13.53;3.37;;;6.70;99.90;;;;;;5103392;28;20246;-81
2021/12/20 05:49:20;;;;;;;14.80;3.03;;;6.70;99.90;;;;;;5097501;28;20332;-80
2021/12/20 05:51:46;;;;;;;14.57;2.60;;;6.70;99.90;;;;;;5101487;28;20705;-80
2021/12/20 05:54:14;;;;;;;8.00;2.43;;;6.70;99.90;;;;;;5079341;28;20374;-81
2021/12/20 05:56:41;;;;;;;7.33;1.93;;;6.80;99.90;;;;;;5087356;28;20224;-81
2021/12/20 05:59:08;;;;;;;13.97;2.30;;;6.70;99.90;;;;;;5099330;28;20237;-80
2021/12/20 06:01:35;;;;;;;17.40;2.60;;;6.70;99.90;;;;;;5100395;28;20203;-81
2021/12/20 06:04:01;;;;;;;14.07;3.60;;;6.70;99.90;;;;;;5095392;28;20301;-80
2021/12/20 06:06:31;;;;;;;11.73;2.47;;;6.70;99.90;;;;;;5102351;28;20192;-80
2021/12/20 06:08:58;;;;;;;16.60;2.80;;;6.70;99.90;;;;;;5086374;28;20193;-81
2021/12/20 06:11:26;;;;;;;13.87;2.87;;;6.70;99.90;;;;;;5105114;28;20198;-80
2021/12/20 06:13:53;;;;;;;6.60;2.20;;;6.70;99.90;;;;;;5104077;28;20196;-79
2021/12/20 06:16:20;;;;;;;10.80;2.50;;;6.70;99.90;;;;;;5103931;28;20233;-80
2021/12/20 06:18:47;;;;;;;14.90;2.63;;;6.80;99.90;;;;;;5085950;28;20212;-80
2021/12/20 06:21:14;;;;;;;12.87;2.67;;;6.70;99.90;;;;;;5095825;28;20253;-80
2021/12/20 06:23:40;;;;;;;13.10;2.60;;;6.70;99.90;;;;;;5104868;28;20240;-80
2021/12/20 06:26:07;;;;;;;13.27;2.37;;;6.70;99.90;;;;;;5097537;28;20216;-81
2021/12/20 06:28:34;;;;;;;9.30;2.70;;;6.70;99.90;;;;;;5104353;28;20285;-81
2021/12/20 06:31:01;;;;;;;10.97;2.73;;;6.70;99.90;;;;;;5103831;28;20295;-80
2021/12/20 06:33:28;;;;;;;16.77;2.33;;;6.70;99.90;;;;;;5101480;28;20244;-80
2021/12/20 06:35:55;;;;;;;7.57;2.13;;;6.70;99.90;;;;;;5102721;28;20232;-80
2021/12/20 06:38:22;;;;;;;10.67;2.90;;;6.70;99.90;;;;;;5102277;28;20635;-80
2021/12/20 06:40:51;;;;;;;14.43;2.87;;;6.60;99.90;;;;;;5100078;28;20619;-81
2021/12/20 06:43:19;;;;;;;10.33;2.73;;;6.70;99.90;;;;;;5106848;28;20211;-81
2021/12/20 06:45:46;;;;;;;14.17;2.53;;;6.60;99.90;;;;;;5075544;28;20583;-80
2021/12/20 06:48:13;;;;;;;10.47;2.30;;;6.60;99.90;;;;;;5102954;28;20230;-81
2021/12/20 06:50:41;;;;;;;11.27;2.20;;;6.60;99.90;;;;;;5089757;28;20285;-80
2021/12/20 06:53:08;;;;;;;15.50;2.67;;;6.60;99.90;;;;;;5099190;28;20203;-80
2021/12/20 06:55:35;;;;;;;10.40;2.33;;;6.60;99.90;;;;;;5102653;28;20298;-80
2021/12/20 06:58:03;;;;;;;15.87;2.83;;;6.60;99.90;;;;;;5107509;28;20704;-82
2021/12/20 07:00:31;;;;;;;12.27;3.03;;;6.60;99.90;;;;;;5101712;28;20237;-81
2021/12/20 07:02:58;;;;;;;11.07;2.53;;;6.60;99.90;;;;;;5107750;28;20207;-81
2021/12/20 07:05:25;;;;;;;12.80;2.97;;;6.60;99.90;;;;;;5098446;28;20559;-80
2021/12/20 07:07:52;;;;;;;9.70;2.27;;;6.60;99.90;;;;;;5100789;28;20208;-81
2021/12/20 07:10:19;;;;;;;12.10;2.40;;;6.30;99.90;;;;;;5099412;28;20218;-81
2021/12/20 07:12:46;;;;;;;10.67;2.30;;;6.60;99.90;;;;;;5100827;28;20239;-82
2021/12/20 07:15:15;;;;;;;9.73;2.33;;;6.60;99.90;;;;;;5094615;28;20226;-81
2021/12/20 07:17:42;;;;;;;10.70;2.50;;;6.60;99.90;;;;;;5100354;28;20222;-81
2021/12/20 07:20:10;;;;;;;15.57;2.30;;;6.50;99.90;;;;;;5097910;28;20213;-79
2021/12/20 07:22:37;;;;;;;13.83;2.97;;;6.50;99.90;;;;;;5084067;28;20303;-82
2021/12/20 07:25:07;;;;;;;14.77;2.33;;;6.40;99.90;;;;;;5098162;28;20295;-81
2021/12/20 07:27:35;;;;;;;11.73;2.60;;;6.40;99.90;;;;;;5100891;28;20621;-79
2021/12/20 07:30:03;;;;;;;10.23;2.50;;;6.40;99.90;;;;;;5102263;28;20260;-80
2021/12/20 07:32:31;;;;;;;14.10;2.73;;;6.40;99.90;;;;;;5067815;28;20204;-80
2021/12/20 07:35:01;;;;;;;10.03;2.57;;;6.40;99.90;;;;;;5078558;28;20322;-81
2021/12/20 07:37:28;;;;;;;10.10;2.57;;;6.40;99.90;;;;;;5101745;28;20221;-82
2021/12/20 07:39:55;;;;;;;15.30;2.80;;;6.40;99.90;;;;;;5086045;28;20303;-80
2021/12/20 07:42:22;;;;;;;11.40;2.40;;;6.40;99.90;;;;;;5085126;28;20216;-81
2021/12/20 07:44:49;;;;;;;15.90;2.93;;;6.40;99.90;;;;;;5087239;28;20353;-80
2021/12/20 07:47:35;;;;;;;9.83;2.30;;;6.70;99.90;;;;;;5080901;28;20203;-81
2021/12/20 07:50:07;;;;;;;13.43;2.47;;;6.40;99.90;;;;;;5098221;28;20229;-81
2021/12/20 07:52:34;;;;;;;14.23;2.60;;;6.40;99.90;;;;;;5088116;28;20259;-80
2021/12/20 07:55:01;;;;;;;13.87;2.73;;;6.40;99.90;;;;;;5104156;28;20204;-80
2021/12/20 07:57:32;;;;;;;20.50;3.10;;;6.40;99.90;;;;;;5100405;28;20209;-82
2021/12/20 07:59:59;;;;;;;16.23;3.20;;;6.40;99.90;;;;;;5085786;28;20199;-85
2021/12/20 08:02:26;;;;;;;11.40;2.67;;;6.40;99.90;;;;;;5107448;28;20274;-80
2021/12/20 08:04:53;;;;;;;11.70;2.73;;;6.70;99.90;;;;;;5097105;28;20317;-82
2021/12/20 08:07:21;;;;;;;11.47;3.13;;;6.40;99.90;;;;;;5104468;28;20269;-82
2021/12/20 08:09:50;;;;;;;14.37;3.73;;;6.80;99.90;;;;;;5115673;28;20207;-82
2021/12/20 08:12:17;;;;;;;16.57;3.67;;;6.40;99.90;;;;;;5105127;28;20247;-82
2021/12/20 08:14:45;;;;;;;16.67;3.03;;;6.40;99.90;;;;;;5108951;28;20443;-82
2021/12/20 08:17:12;;;;;;;16.53;2.97;;;6.50;99.90;;;;;;5082228;28;20236;-82
2021/12/20 08:19:39;;;;;;;14.60;3.13;;;6.50;99.90;;;;;;5101301;28;20226;-81
2021/12/20 08:22:06;;;;;;;10.83;3.17;;;6.50;99.90;;;;;;5103425;28;20240;-80
2021/12/20 08:24:33;;;;;;;16.00;2.53;;;6.60;99.90;;;;;;5082966;28;20241;-78
2021/12/20 08:27:00;;;;;;;10.73;2.77;;;6.50;99.90;;;;;;5097434;28;20283;-81
2021/12/20 08:29:29;;;;;;;13.30;2.80;;;6.60;99.90;;;;;;5098247;28;20232;-82
2021/12/20 08:32:02;;;;;;;10.50;2.70;;;6.60;99.90;;;;;;5098374;28;20254;-82
2021/12/20 08:34:31;;;;;;;10.63;2.57;;;6.60;99.90;;;;;;5097910;28;20240;-81
2021/12/20 08:36:59;;;;;;;11.63;3.10;;;6.60;99.90;;;;;;5101902;28;20233;-81
2021/12/20 08:39:25;;;;;;;13.93;4.20;;;6.70;99.90;;;;;;5095843;28;20210;-81
2021/12/20 08:41:53;;;;;;;15.47;3.27;;;6.70;99.90;;;;;;5084133;28;20201;-82
2021/12/20 08:44:19;;;;;;;10.40;2.53;;;6.70;99.90;;;;;;5100449;28;20303;-82
2021/12/20 08:46:46;;;;;;;13.07;3.13;;;6.70;99.90;;;;;;5079105;28;20903;-81
2021/12/20 08:49:13;;;;;;;10.07;3.17;;;6.70;99.90;;;;;;5092953;28;20742;-81
2021/12/20 08:51:40;;;;;;;8.83;2.77;;;6.80;99.90;;;;;;5102188;28;20240;-81
2021/12/20 08:54:07;;;;;;;13.53;2.60;;;6.70;99.90;;;;;;5102838;28;20656;-80
2021/12/20 08:56:34;;;;;;;12.03;3.70;;;6.80;99.90;;;;;;5100983;28;20340;-81
2021/12/20 08:59:01;;;;;;;12.43;2.63;;;6.80;99.90;;;;;;5107735;28;20261;-80
2021/12/20 09:01:30;;;;;;;14.13;3.27;;;6.80;99.90;;;;;;5080643;28;20710;-81
2021/12/20 09:03:57;;;;;;;13.33;2.83;;;6.90;99.90;;;;;;5105132;28;20203;-81
2021/12/20 09:06:27;;;;;;;13.70;2.67;;;6.90;99.90;;;;;;5097833;28;20206;-82
2021/12/20 09:08:55;;;;;;;10.63;5.20;;;7.00;99.90;;;;;;5083458;28;20211;-82
2021/12/20 09:11:23;;;;;;;16.50;5.50;;;7.00;99.90;;;;;;5082552;28;20223;-83
2021/12/20 09:13:58;;;;;;;16.27;4.60;;;7.10;99.90;;;;;;5105239;28;20217;-82
2021/12/20 09:16:26;;;;;;;15.37;3.27;;;7.10;99.90;;;;;;5105598;28;20272;-82
2021/12/20 09:18:53;;;;;;;13.67;2.97;;;7.20;99.90;;;;;;5082765;28;20208;-83
2021/12/20 09:21:20;;;;;;;15.27;3.47;;;7.20;99.90;;;;;;5098475;28;20241;-83
2021/12/20 09:23:47;;;;;;;24.40;2.90;;;7.20;99.90;;;;;;5086309;28;20629;-82
2021/12/20 09:26:18;;;;;;;9.87;2.70;;;7.30;99.90;;;;;;5090583;28;20225;-81
2021/12/20 09:28:45;;;;;;;12.57;3.20;;;7.30;99.90;;;;;;5081492;28;20216;-83
2021/12/20 09:31:12;;;;;;;11.97;2.23;;;7.40;99.90;;;;;;5103152;28;20211;-82
2021/12/20 09:33:39;;;;;;;8.67;2.30;;;7.30;99.90;;;;;;5101244;28;20215;-83
2021/12/20 09:36:07;;;;;;;12.30;2.50;;;7.30;99.90;;;;;;5106936;28;20276;-82
2021/12/20 09:38:34;;;;;;;11.23;2.70;;;7.30;99.90;;;;;;5095440;28;20642;-83
2021/12/20 09:41:13;;;;;;;18.77;3.20;;;7.20;99.90;;;;;;5105795;28;20549;-81
2021/12/20 09:43:47;;;;;;;18.07;4.77;;;7.20;99.90;;;;;;5103345;28;20205;-81
2021/12/20 09:46:16;;;;;;;15.30;3.97;;;7.10;99.90;;;;;;5083168;28;20261;-83
2021/12/20 09:48:45;;;;;;;10.37;3.43;;;7.20;99.90;;;;;;5100979;28;20235;-80
2021/12/20 09:51:12;;;;;;;11.57;3.70;;;7.00;99.90;;;;;;5101365;28;20240;-83
2021/12/20 09:53:40;;;;;;;15.63;3.93;;;6.90;99.90;;;;;;5107296;28;20209;-82
2021/12/20 09:56:08;;;;;;;17.10;4.63;;;6.80;99.90;;;;;;5089583;28;20245;-83
2021/12/20 09:58:40;;;;;;;9.97;4.10;;;6.80;99.90;;;;;;5101933;28;20767;-82
2021/12/20 10:01:12;;;;;;;21.03;10.83;;;6.70;99.90;;;;;;5082371;28;20213;-82
2021/12/20 10:03:47;;;;;;;13.00;7.23;;;6.60;99.90;;;;;;5102825;28;20219;-83
2021/12/20 10:06:15;;;;;;;15.80;4.53;;;6.60;99.90;;;;;;5097946;28;20219;-81
2021/12/20 10:09:11;;;;;;;9.43;4.30;;;6.50;99.90;;;;;;5108467;28;20210;-84
2021/12/20 10:11:30;;;;;;;17.07;6.13;;;6.40;99.90;;;;;;5102330;28;20209;-82
2021/12/20 10:14:08;;;;;;;18.83;6.47;;;6.40;99.90;;;;;;5110046;28;20234;-82
2021/12/20 10:16:38;;;;;;;16.97;6.73;;;6.40;99.90;;;;;;5099141;28;20297;-83
2021/12/20 10:19:26;;;;;;;93.97;55.07;;;6.40;99.90;;;;;;5082197;28;20855;-82
2021/12/20 10:21:53;;;;;;;28.47;14.00;;;6.40;99.90;;;;;;5092223;28;20222;-81
2021/12/20 10:24:29;;;;;;;25.70;10.63;;;6.40;99.90;;;;;;5104492;28;20711;-83
2021/12/20 10:26:56;;;;;;;16.03;7.10;;;6.50;99.90;;;;;;5088327;28;20297;-81
2021/12/20 10:29:23;;;;;;;22.30;5.23;;;6.40;99.90;;;;;;5106946;28;20694;-82
2021/12/20 10:31:51;;;;;;;14.63;3.73;;;6.60;99.90;;;;;;5085112;28;20221;-81
2021/12/20 10:34:28;;;;;;;18.87;4.87;;;6.50;99.90;;;;;;5096349;28;20313;-82
2021/12/20 10:36:57;;;;;;;18.53;4.47;;;6.40;99.90;;;;;;5093247;28;20222;-82
2021/12/20 10:39:44;;;;;;;20.80;5.93;;;6.40;99.90;;;;;;5117940;28;20218;-81
2021/12/20 10:42:15;;;;;;;12.93;4.07;;;6.40;99.90;;;;;;5113646;28;20200;-82
2021/12/20 10:44:42;;;;;;;46.47;22.90;;;6.40;99.90;;;;;;5112403;28;20641;-83
2021/12/20 10:47:24;;;;;;;29.17;12.63;;;6.40;99.90;;;;;;5115983;28;20217;-82
2021/12/20 10:49:52;;;;;;;20.30;8.30;;;6.40;99.90;;;;;;5110476;28;20243;-80
2021/12/20 10:52:31;;;;;;;25.80;6.03;;;6.40;99.90;;;;;;5114860;28;20244;-83
2021/12/20 10:54:58;;;;;;;20.93;6.67;;;6.40;99.90;;;;;;5105761;28;20222;-83
2021/12/20 10:57:28;;;;;;;20.50;5.47;;;6.40;99.90;;;;;;5078920;28;20232;-83
2021/12/20 11:00:18;;;;;;;26.57;12.90;;;6.40;99.90;;;;;;5106990;28;20203;-83
2021/12/20 11:11:28;;;;;;;20.50;3.57;;;6.50;99.90;;;;;;5100299;28;20728;-82
2021/12/20 11:13:54;;;;;;;17.67;4.37;;;6.50;99.90;;;;;;5101806;28;20203;-81
2021/12/20 11:16:25;;;;;;;26.43;6.00;;;6.50;99.90;;;;;;5080562;28;20268;-83
2021/12/20 11:19:07;;;;;;;21.20;8.10;;;6.50;99.90;;;;;;5097512;28;20295;-81
2021/12/20 11:21:35;;;;;;;25.03;7.10;;;6.50;99.90;;;;;;5100104;28;20307;-82
2021/12/20 11:24:10;;;;;;;20.20;8.43;;;6.60;99.90;;;;;;5084756;28;20725;-83
2021/12/20 11:26:39;;;;;;;23.20;6.30;;;6.60;99.90;;;;;;5103571;28;20572;-82
2021/12/20 11:29:06;;;;;;;26.27;6.67;;;6.70;99.90;;;;;;5099186;28;20218;-82
2021/12/20 11:31:33;;;;;;;21.90;6.07;;;6.70;99.90;;;;;;5102349;28;20204;-82
2021/12/20 11:34:00;;;;;;;30.17;5.27;;;6.80;99.90;;;;;;5101012;28;20212;-81
2021/12/20 11:36:28;;;;;;;17.37;4.33;;;6.70;99.90;;;;;;5103706;28;20227;-82
2021/12/20 11:38:58;;;;;;;19.53;4.20;;;6.70;99.90;;;;;;5084038;28;20813;-81
2021/12/20 11:41:27;;;;;;;28.80;4.90;;;6.70;99.90;;;;;;5100441;28;20237;-82
2021/12/20 11:43:55;;;;;;;17.57;3.77;;;6.70;99.90;;;;;;5087127;28;20220;-83
2021/12/20 11:46:28;;;;;;;16.00;3.50;;;6.70;99.90;;;;;;5084059;28;20216;-82
2021/12/20 11:48:57;;;;;;;18.67;3.63;;;6.70;99.90;;;;;;5083898;28;20569;-82
2021/12/20 11:52:02;;;;;;;25.27;5.83;;;6.70;99.90;;;;;;5100933;28;20213;-83
2021/12/20 11:54:38;;;;;;;26.87;6.20;;;6.70;99.90;;;;;;5082207;28;20201;-82
2021/12/20 11:57:08;;;;;;;39.87;18.13;;;6.70;99.90;;;;;;5086502;28;20325;-82
2021/12/20 11:59:53;;;;;;;25.97;9.80;;;6.70;99.90;;;;;;5079507;28;20219;-83
2021/12/20 12:02:28;;;;;;;21.97;9.00;;;6.70;99.90;;;;;;5075532;28;20236;-84
2021/12/20 12:05:00;;;;;;;27.93;11.00;;;6.80;99.90;;;;;;5084047;28;20275;-83
2021/12/20 12:07:30;;;;;;;21.53;7.77;;;6.80;99.90;;;;;;5083602;28;20685;-84
2021/12/20 12:10:07;;;;;;;23.53;6.10;;;6.80;99.90;;;;;;5080775;28;20633;-85
2021/12/20 12:12:40;;;;;;;23.07;4.37;;;6.90;99.90;;;;;;5075948;28;20201;-83
2021/12/20 12:15:28;;;;;;;18.77;3.50;;;6.90;99.90;;;;;;5074346;28;20219;-85
2021/12/20 12:17:59;;;;;;;25.77;4.17;;;7.00;99.90;;;;;;5079071;28;20230;-82
2021/12/20 12:20:49;;;;;;;18.17;4.43;;;7.10;99.90;;;;;;5083455;28;20219;-83
2021/12/20 12:23:20;;;;;;;20.17;3.80;;;7.20;99.90;;;;;;5078145;28;20513;-83
2021/12/20 12:25:56;;;;;;;18.00;4.63;;;7.30;99.90;;;;;;5077652;28;20673;-81
2021/12/20 12:28:26;;;;;;;16.50;3.60;;;7.30;99.90;;;;;;5084208;28;20238;-84
2021/12/20 12:30:57;;;;;;;23.73;3.87;;;7.30;99.90;;;;;;5088008;28;20568;-83
2021/12/20 12:33:31;;;;;;;21.63;3.60;;;7.30;99.90;;;;;;5079050;28;20200;-82
2021/12/20 12:36:02;;;;;;;22.93;3.67;;;7.50;99.90;;;;;;5087545;28;20375;-83
2021/12/20 12:38:36;;;;;;;15.47;3.73;;;7.40;99.90;;;;;;5080552;28;20226;-83
2021/12/20 12:41:05;;;;;;;21.53;3.73;;;7.40;99.90;;;;;;5085699;28;20217;-83
2021/12/20 12:43:54;;;;;;;17.20;4.77;;;7.50;99.90;;;;;;5084251;28;20218;-83
2021/12/20 12:46:37;;;;;;;19.50;3.40;;;7.40;99.90;;;;;;5084031;28;20212;-83
2021/12/20 12:49:22;;;;;;;16.87;3.30;;;7.50;99.90;;;;;;5082569;28;20223;-82
2021/12/20 12:52:11;;;;;;;24.23;3.83;;;7.40;99.90;;;;;;5077282;28;20230;-83
2021/12/20 12:55:02;;;;;;;22.43;6.83;;;7.40;99.90;;;;;;5082971;28;20305;-85
2021/12/20 12:57:33;;;;;;;32.47;14.10;;;7.30;99.90;;;;;;5081920;28;20233;-84
2021/12/20 13:00:05;;;;;;;24.43;10.00;;;7.30;99.90;;;;;;5087084;28;20537;-82
2021/12/20 13:02:36;;;;;;;27.73;11.00;;;7.30;99.90;;;;;;5076125;28;20326;-83
2021/12/20 13:05:14;;;;;;;26.27;8.83;;;7.20;99.90;;;;;;5105977;28;20246;-81
2021/12/20 13:07:45;;;;;;;20.30;6.63;;;7.20;99.90;;;;;;5106503;28;20276;-84
2021/12/20 13:10:29;;;;;;;23.33;6.30;;;7.20;99.90;;;;;;5084404;28;20277;-83
2021/12/20 13:13:11;;;;;;;25.57;5.20;;;7.20;99.90;;;;;;5106484;28;20194;-83
2021/12/20 13:15:58;;;;;;;25.33;7.40;;;7.10;99.90;;;;;;5107319;28;20214;-85
2021/12/20 13:18:31;;;;;;;21.30;9.20;;;7.00;99.90;;;;;;5082552;28;21020;-84
2021/12/20 13:21:06;;;;;;;27.03;7.60;;;7.00;99.90;;;;;;5104300;28;20274;-84
2021/12/20 13:23:35;;;;;;;22.20;8.77;;;6.90;99.90;;;;;;5088835;28;20316;-83
2021/12/20 13:26:09;;;;;;;16.47;6.13;;;6.90;99.90;;;;;;5088615;28;20208;-82